KRHV/RHV METAR and TAF weather

Enter ICAO airport designator
Station Type Date Time Source
KRHV METAR 2019/02/22 21:52 UTC NOAA

KRHV 222152Z 01010KT 10SM SKC 14/M07 A3008


Station Type Date Time Source
KRHV Decoded METAR 2019/02/22 21:52 UTC NOAA

San Jose / Reid / Hillv, CA, United States (KRHV) 37-20N 121-49W
Feb 22, 2019 - 04:52 PM EST / 2019.02.22 2152 UTC
Wind: from the N (010 degrees) at 12 MPH (10 KT):0
Visibility: 10 mile(s):0
Sky conditions: clear
Temperature: 57 F (14 C)
Dew Point: 19 F (-7 C)
Relative Humidity: 22%
Pressure (altimeter): 30.08 in. Hg (1018 hPa)
ob: KRHV 222152Z 01010KT 10SM SKC 14/M07 A3008
cycle: 22

Station Type Date Time Source
KRHV TAF UTC NOAA

Error!


Example: see airport list